Hovedside
METAR-TAF:

METAR-TAF

Lufthavner :

Karlstad lufthavn

Karlstad, Sverige

breddegrad: 59-26-41N, lengdegrad: 013-20-15E, høyde over havet: 107 m

Gjeldene værobservasjon

Denne rapporten ble laget for 21 minutter siden, klokken 00:50 UTC
Vind 2 kt fra Sør-sørvest
Temperatur -2°C
Luftfuktighet 100%
Trykk 999 hPa
Sikt: 1500 m
dis

METAR: ESOK 290050Z AUTO 20002KT 1500 BR NCD M02/M02 Q0999

Tid: 02:11 (01:11 UTC)

Varsel

Denne rapporten ble laget for 10 timer og 41 minutter siden, klokken 14:30 UTC
Varsel gyldig fra 28. klokken 15 UTC til 28. klokken 18 UTC
Vind 7 kt fra Sør
Sikt 10 km eller mer
Brutte skyer i en høyde av 3000 ft
lette snøbyger
Midlertidig
fra 28. klokken 15 UTC til 28. klokken 18 UTC
Brutte skyer i en høyde av 1400 ft

TAF: ESOK 281430Z 2815/2818 18007KT 9999 -SHSN BKN030 TEMPO 2815/2818 BKN014

Værobservasjoner og værvarsel for over 4000 flyplasser (METAR- og TAF-rapporter).

Tilgjengelige stasjoner er representert av de røde og gule prikkene på kartet.

Hold musepekeren over prikken for å se navnet på stasjonen.

Klikk så for å se værobservasjoner og -varsler.

For å forandre kartet kan du klikke på den grønne knappen med svart kryss for å zoome inn, på den grønne knappen med strek for å zoome ut, eller på de grønne pilene for å se tilstøtende kart.


METAR-TAF: